createdAt,value
2018-08-28T00:02:07.059Z,14.40
2018-08-28T00:05:04.846Z,14.30
2018-08-28T00:08:02.589Z,14.30
2018-08-28T00:11:00.254Z,14.20
2018-08-28T00:13:58.055Z,14.20
2018-08-28T00:16:55.866Z,14.10
2018-08-28T00:19:54.052Z,14.10
2018-08-28T00:22:51.283Z,14.00
2018-08-28T00:25:49.110Z,14.10
2018-08-28T00:28:46.855Z,14.00
2018-08-28T00:31:44.878Z,14.00
2018-08-28T00:34:42.542Z,14.00
2018-08-28T00:37:40.411Z,14.00
2018-08-28T00:40:38.194Z,14.10
2018-08-28T00:43:36.011Z,14.10
2018-08-28T00:46:33.653Z,14.10
2018-08-28T00:49:31.395Z,14.10
2018-08-28T00:52:29.262Z,14.10
2018-08-28T00:55:26.785Z,14.20
2018-08-28T00:58:24.610Z,14.20
2018-08-28T01:01:22.275Z,14.20
2018-08-28T01:04:20.075Z,14.20
2018-08-28T01:07:17.787Z,14.20
2018-08-28T01:10:15.711Z,14.20
2018-08-28T01:13:13.380Z,14.20
2018-08-28T01:16:10.970Z,14.20
2018-08-28T01:19:08.609Z,14.20
2018-08-28T01:22:06.413Z,14.30
2018-08-28T01:25:03.957Z,14.30
2018-08-28T01:28:01.666Z,14.30
2018-08-28T01:30:59.516Z,14.40
2018-08-28T01:33:57.440Z,14.40
2018-08-28T01:36:55.029Z,14.30
2018-08-28T01:39:52.819Z,14.30
2018-08-28T01:42:50.442Z,14.20
2018-08-28T01:45:48.438Z,14.10
2018-08-28T01:48:46.455Z,14.00
2018-08-28T01:51:44.313Z,14.00
2018-08-28T01:54:42.142Z,14.00
2018-08-28T01:57:39.834Z,14.00
2018-08-28T02:00:37.571Z,13.90
2018-08-28T02:03:35.315Z,14.00
2018-08-28T02:06:33.109Z,14.00
2018-08-28T02:09:31.021Z,14.10
2018-08-28T02:12:28.672Z,14.10
2018-08-28T02:15:26.397Z,14.10
2018-08-28T02:18:24.175Z,14.20
2018-08-28T02:21:21.911Z,14.20
2018-08-28T02:24:20.794Z,14.20
2018-08-28T02:27:18.566Z,14.20
2018-08-28T02:30:16.270Z,14.30
2018-08-28T02:33:14.122Z,14.40
2018-08-28T02:36:12.045Z,14.40
2018-08-28T02:39:11.759Z,14.40
2018-08-28T02:42:09.531Z,14.40
2018-08-28T02:45:07.560Z,14.40
2018-08-28T02:48:05.142Z,14.40
2018-08-28T02:51:02.926Z,14.40
2018-08-28T02:54:00.559Z,14.40
2018-08-28T02:56:58.456Z,14.50
2018-08-28T02:59:55.983Z,14.40
2018-08-28T03:02:56.761Z,14.40
2018-08-28T03:05:54.204Z,14.40
2018-08-28T03:08:51.826Z,14.40
2018-08-28T03:11:49.544Z,14.40
2018-08-28T03:14:47.401Z,14.40
2018-08-28T03:17:45.131Z,14.40
2018-08-28T03:20:43.104Z,14.40
2018-08-28T03:23:40.879Z,14.40
2018-08-28T03:26:38.816Z,14.30
2018-08-28T03:29:37.403Z,14.40
2018-08-28T03:32:35.235Z,14.40
2018-08-28T03:35:32.843Z,14.40
2018-08-28T03:38:30.547Z,14.40
2018-08-28T03:41:28.183Z,14.40
2018-08-28T03:44:25.867Z,14.40
2018-08-28T03:47:23.601Z,14.40
2018-08-28T03:50:21.339Z,14.50
2018-08-28T03:53:20.013Z,14.50
2018-08-28T03:56:17.837Z,14.60
2018-08-28T03:59:15.352Z,14.60
2018-08-28T04:02:13.144Z,14.60
2018-08-28T04:05:10.791Z,14.70
2018-08-28T04:08:09.480Z,14.70
2018-08-28T04:11:07.181Z,14.70
2018-08-28T04:14:05.816Z,14.70
2018-08-28T04:17:03.540Z,14.70
2018-08-28T04:20:01.277Z,14.70
2018-08-28T04:22:58.907Z,14.70
2018-08-28T04:25:56.846Z,14.70
2018-08-28T04:28:54.544Z,14.70
2018-08-28T04:31:52.076Z,14.70
2018-08-28T04:34:49.971Z,14.80
2018-08-28T04:37:47.797Z,14.70
2018-08-28T04:40:46.726Z,14.80
2018-08-28T04:43:44.507Z,14.90
2018-08-28T04:46:42.091Z,14.90
2018-08-28T04:49:39.632Z,14.90
2018-08-28T04:52:37.552Z,15.00
2018-08-28T04:55:35.120Z,15.00
2018-08-28T04:58:32.928Z,15.10
2018-08-28T05:01:30.490Z,15.10
2018-08-28T05:04:28.181Z,15.20
2018-08-28T05:07:25.954Z,15.30
2018-08-28T05:10:23.726Z,15.40
2018-08-28T05:13:21.523Z,15.40
2018-08-28T05:16:19.419Z,15.50
2018-08-28T05:19:17.055Z,15.60
2018-08-28T05:22:15.939Z,15.60
2018-08-28T05:25:13.723Z,15.60
2018-08-28T05:28:14.448Z,15.70
2018-08-28T05:31:12.397Z,15.80
2018-08-28T05:34:09.875Z,15.90
2018-08-28T05:37:07.405Z,16.10
2018-08-28T05:40:04.950Z,16.10
2018-08-28T05:43:07.968Z,16.00
2018-08-28T05:46:06.578Z,16.10
2018-08-28T05:49:04.264Z,16.10
2018-08-28T05:52:01.940Z,16.30
2018-08-28T05:54:59.449Z,16.30
2018-08-28T05:57:57.199Z,16.30
2018-08-28T06:00:55.907Z,16.30
2018-08-28T06:03:53.516Z,16.40
2018-08-28T06:06:52.486Z,16.50
2018-08-28T06:09:49.951Z,16.60
2018-08-28T06:12:47.948Z,16.80
2018-08-28T06:15:45.654Z,17.00
2018-08-28T06:18:43.611Z,17.10
2018-08-28T06:21:41.359Z,17.20
2018-08-28T06:24:38.981Z,17.10
2018-08-28T06:27:36.775Z,17.00
2018-08-28T06:30:34.507Z,16.90
2018-08-28T06:33:32.226Z,16.90
2018-08-28T06:36:29.992Z,16.90
2018-08-28T06:39:29.719Z,16.90
2018-08-28T06:42:27.567Z,16.90
2018-08-28T06:45:25.162Z,16.80
2018-08-28T06:48:22.825Z,16.80
2018-08-28T06:51:20.734Z,16.90
2018-08-28T06:54:19.110Z,17.00
2018-08-28T06:57:17.262Z,17.10
2018-08-28T07:00:16.107Z,17.30
2018-08-28T07:03:13.715Z,17.40
2018-08-28T07:06:11.587Z,18.00
2018-08-28T07:09:09.037Z,18.90
2018-08-28T07:12:06.645Z,19.50
2018-08-28T07:15:04.326Z,20.10
2018-08-28T07:18:03.165Z,21.60
2018-08-28T07:21:00.871Z,22.20
2018-08-28T07:23:58.554Z,22.20
2018-08-28T07:26:56.068Z,22.40
2018-08-28T07:29:53.934Z,22.00
2018-08-28T07:32:51.582Z,22.60
2018-08-28T07:35:49.625Z,23.00
2018-08-28T07:38:47.321Z,22.70
2018-08-28T07:41:45.074Z,23.00
2018-08-28T07:44:43.083Z,23.80
2018-08-28T07:47:41.715Z,24.70
2018-08-28T07:50:39.632Z,24.40
2018-08-28T07:53:37.362Z,24.10
2018-08-28T07:56:34.872Z,24.70
2018-08-28T07:59:32.660Z,24.90
2018-08-28T08:02:30.442Z,25.00
2018-08-28T08:05:28.053Z,24.60
2018-08-28T08:08:25.717Z,24.50
2018-08-28T08:11:23.422Z,23.50
2018-08-28T08:14:21.147Z,23.60
2018-08-28T08:17:19.076Z,23.00
2018-08-28T08:20:16.761Z,22.20
2018-08-28T08:23:14.395Z,21.80
2018-08-28T08:26:12.123Z,22.40
2018-08-28T08:29:10.028Z,23.40
2018-08-28T08:32:07.539Z,24.50
2018-08-28T08:35:05.690Z,24.50
2018-08-28T08:38:03.478Z,23.60
2018-08-28T08:41:01.012Z,23.30
2018-08-28T08:43:58.671Z,22.70
2018-08-28T08:46:56.783Z,21.80
2018-08-28T08:49:56.202Z,21.50
2018-08-28T08:52:53.910Z,21.20
2018-08-28T08:55:52.686Z,20.80
2018-08-28T08:58:51.455Z,21.00
2018-08-28T09:01:49.114Z,20.90
2018-08-28T09:04:46.779Z,20.80
2018-08-28T09:07:44.464Z,20.80
2018-08-28T09:10:42.411Z,20.70
2018-08-28T09:13:40.324Z,20.80
2018-08-28T09:16:38.056Z,21.50
2018-08-28T09:19:35.894Z,23.80
2018-08-28T09:22:33.406Z,23.90
2018-08-28T09:25:31.090Z,22.50
2018-08-28T09:28:28.675Z,22.40
2018-08-28T09:31:27.391Z,23.80
2018-08-28T09:34:24.959Z,24.50
2018-08-28T09:37:23.592Z,24.60
2018-08-28T09:40:21.497Z,24.70
2018-08-28T09:43:20.107Z,25.00
2018-08-28T09:46:17.834Z,24.20
2018-08-28T09:49:16.658Z,24.50
2018-08-28T09:52:14.331Z,25.50
2018-08-28T09:55:11.924Z,25.30
2018-08-28T09:58:09.584Z,23.90
2018-08-28T10:01:13.407Z,23.90
2018-08-28T10:04:10.970Z,24.90
2018-08-28T10:07:08.759Z,25.00
2018-08-28T10:10:06.354Z,25.80
2018-08-28T10:13:04.119Z,25.80
2018-08-28T10:16:01.763Z,24.80
2018-08-28T10:18:59.261Z,25.00
2018-08-28T10:21:57.140Z,26.10
2018-08-28T10:24:55.061Z,26.60
2018-08-28T10:27:52.495Z,26.70
2018-08-28T10:30:50.315Z,25.50
2018-08-28T10:33:47.849Z,25.00
2018-08-28T10:36:45.407Z,25.00
2018-08-28T10:39:43.309Z,25.40
2018-08-28T10:42:43.048Z,26.10
2018-08-28T10:45:40.801Z,25.40
2018-08-28T10:48:39.453Z,25.20
2018-08-28T10:51:37.835Z,25.20
2018-08-28T10:54:35.694Z,25.20
2018-08-28T10:57:33.482Z,24.20
2018-08-28T11:00:31.375Z,23.50
2018-08-28T11:03:29.401Z,23.00
2018-08-28T11:06:27.144Z,23.60
2018-08-28T11:09:25.156Z,24.10
2018-08-28T11:12:22.770Z,24.60
2018-08-28T11:15:20.501Z,24.00
2018-08-28T11:18:18.283Z,24.10
2018-08-28T11:21:17.002Z,24.20
2018-08-28T11:24:14.574Z,24.70
2018-08-28T11:27:12.507Z,24.60
2018-08-28T11:30:10.479Z,24.00
2018-08-28T11:33:08.112Z,23.50
2018-08-28T11:36:05.712Z,23.50
2018-08-28T11:39:03.456Z,24.00
2018-08-28T11:42:01.303Z,24.70
2018-08-28T11:44:58.863Z,24.80
2018-08-28T11:47:56.678Z,25.30
2018-08-28T11:50:54.308Z,25.50
2018-08-28T11:53:52.032Z,25.00
2018-08-28T11:56:49.799Z,24.10
2018-08-28T11:59:47.563Z,23.90
2018-08-28T12:02:45.170Z,24.30
2018-08-28T12:05:42.966Z,24.10
2018-08-28T12:08:40.635Z,24.10
2018-08-28T12:11:38.484Z,23.80
2018-08-28T12:14:36.281Z,23.50
2018-08-28T12:17:34.192Z,23.40
2018-08-28T12:20:31.980Z,23.40
2018-08-28T12:23:29.536Z,24.00
2018-08-28T12:26:27.354Z,23.60
2018-08-28T12:29:25.195Z,23.90
2018-08-28T12:32:22.723Z,24.50
2018-08-28T12:35:20.760Z,24.70
2018-08-28T12:38:18.490Z,24.80
2018-08-28T12:41:16.066Z,24.80
2018-08-28T12:44:13.592Z,25.20
2018-08-28T12:47:11.402Z,25.50
2018-08-28T12:50:09.081Z,25.00
2018-08-28T12:53:06.595Z,23.90
2018-08-28T12:56:04.437Z,23.00
2018-08-28T12:59:02.216Z,22.50
2018-08-28T13:01:59.833Z,22.30
2018-08-28T13:04:57.537Z,22.10
2018-08-28T13:07:55.081Z,21.90
2018-08-28T13:10:52.875Z,21.50
2018-08-28T13:13:50.556Z,21.40
2018-08-28T13:16:48.052Z,21.50
2018-08-28T13:19:45.871Z,21.60
2018-08-28T13:22:43.511Z,21.50
2018-08-28T13:25:41.241Z,21.60
2018-08-28T13:28:38.826Z,21.60
2018-08-28T13:31:36.565Z,21.60
2018-08-28T13:34:34.250Z,21.40
2018-08-28T13:37:31.938Z,21.30
2018-08-28T13:40:30.933Z,21.20
2018-08-28T13:43:28.765Z,21.20
2018-08-28T13:46:26.574Z,21.20
2018-08-28T13:49:24.328Z,21.20
2018-08-28T13:52:21.876Z,21.20
2018-08-28T13:55:19.900Z,21.20
2018-08-28T13:58:17.571Z,21.10
2018-08-28T14:01:15.459Z,21.00
2018-08-28T14:04:13.187Z,21.00
2018-08-28T14:07:10.828Z,21.00
2018-08-28T14:10:08.439Z,21.20
2018-08-28T14:13:06.174Z,21.30
2018-08-28T14:16:04.006Z,21.20
2018-08-28T14:19:02.771Z,21.10
2018-08-28T14:22:00.328Z,21.00
2018-08-28T14:24:58.482Z,20.90
2018-08-28T14:27:55.856Z,20.80
2018-08-28T14:30:53.545Z,20.80
2018-08-28T14:33:51.326Z,20.90
2018-08-28T14:36:49.114Z,20.90
2018-08-28T14:39:46.987Z,20.70
2018-08-28T14:42:45.091Z,20.50
2018-08-28T14:45:42.443Z,20.70
2018-08-28T14:48:40.375Z,20.80
2018-08-28T14:51:38.047Z,20.80
2018-08-28T14:54:37.536Z,21.00
2018-08-28T14:57:35.896Z,21.40
2018-08-28T15:00:33.607Z,22.10
2018-08-28T15:03:31.368Z,22.40
2018-08-28T15:06:30.041Z,22.40
2018-08-28T15:09:28.720Z,22.60
2018-08-28T15:12:26.422Z,22.60
2018-08-28T15:15:24.509Z,22.40
2018-08-28T15:18:22.095Z,22.40
2018-08-28T15:21:19.780Z,22.40
2018-08-28T15:24:17.424Z,22.20
2018-08-28T15:27:14.941Z,22.20
2018-08-28T15:30:12.660Z,21.90
2018-08-28T15:33:10.200Z,22.00
2018-08-28T15:36:08.439Z,22.00
2018-08-28T15:39:05.794Z,21.70
2018-08-28T15:42:12.381Z,21.70
2018-08-28T15:45:10.049Z,21.90
2018-08-28T15:48:07.902Z,21.60
2018-08-28T15:51:05.564Z,21.60
2018-08-28T15:54:03.291Z,21.70
2018-08-28T15:57:01.003Z,21.70
2018-08-28T15:59:58.851Z,21.60
2018-08-28T16:02:56.450Z,21.60
2018-08-28T16:05:53.938Z,21.50
2018-08-28T16:08:51.601Z,21.50
2018-08-28T16:11:49.416Z,21.40
2018-08-28T16:14:47.090Z,21.50
2018-08-28T16:17:44.843Z,21.30
2018-08-28T16:20:42.490Z,20.90
2018-08-28T16:23:43.494Z,20.80
2018-08-28T16:26:41.211Z,20.50
2018-08-28T16:29:38.833Z,20.10
2018-08-28T16:32:37.317Z,20.00
2018-08-28T16:35:35.266Z,19.80
2018-08-28T16:38:33.089Z,19.70
2018-08-28T16:41:30.977Z,19.70
2018-08-28T16:44:28.773Z,19.80
2018-08-28T16:47:26.456Z,19.80
2018-08-28T16:50:23.987Z,19.50
2018-08-28T16:53:21.714Z,19.30
2018-08-28T16:56:19.460Z,19.20
2018-08-28T16:59:17.306Z,19.10
2018-08-28T17:02:14.881Z,19.00
2018-08-28T17:05:12.513Z,18.90
2018-08-28T17:08:10.382Z,18.80
2018-08-28T17:11:07.953Z,18.80
2018-08-28T17:14:06.015Z,18.80
2018-08-28T17:17:03.460Z,18.80
2018-08-28T17:20:02.388Z,18.70
2018-08-28T17:23:00.180Z,18.70
2018-08-28T17:25:57.961Z,18.70
2018-08-28T17:28:55.842Z,18.60
2018-08-28T17:31:53.659Z,18.50
2018-08-28T17:34:51.168Z,18.40
2018-08-28T17:37:48.773Z,18.40
2018-08-28T17:40:46.318Z,18.50
2018-08-28T17:43:44.303Z,18.40
2018-08-28T17:46:41.982Z,18.40
2018-08-28T17:49:39.718Z,18.30
2018-08-28T17:52:38.471Z,18.20
2018-08-28T17:55:36.359Z,18.20
2018-08-28T17:58:34.163Z,18.20
2018-08-28T18:01:31.910Z,18.10
2018-08-28T18:04:29.743Z,18.10
2018-08-28T18:07:27.508Z,18.00
2018-08-28T18:10:25.397Z,18.00
2018-08-28T18:13:23.215Z,18.00
2018-08-28T18:16:20.914Z,18.00
2018-08-28T18:19:18.841Z,18.00
2018-08-28T18:25:21.194Z,17.90
2018-08-28T18:28:19.145Z,17.90
2018-08-28T18:31:16.732Z,17.90
2018-08-28T18:34:14.566Z,17.90
2018-08-28T18:37:12.306Z,17.80
2018-08-28T18:40:10.144Z,17.80
2018-08-28T18:43:08.106Z,17.80
2018-08-28T18:46:08.891Z,17.80
2018-08-28T18:49:06.484Z,17.70
2018-08-28T18:52:03.851Z,17.80
2018-08-28T18:55:01.643Z,17.70
2018-08-28T18:57:59.350Z,17.60
2018-08-28T19:00:56.952Z,17.60
2018-08-28T19:03:54.588Z,17.60
2018-08-28T19:06:52.180Z,17.50
2018-08-28T19:09:50.069Z,17.40
2018-08-28T19:12:47.900Z,17.40
2018-08-28T19:15:45.583Z,17.40
2018-08-28T19:18:43.281Z,17.40
2018-08-28T19:21:40.983Z,17.30
2018-08-28T19:24:38.680Z,17.30
2018-08-28T19:27:36.517Z,17.30
2018-08-28T19:30:33.941Z,17.20
2018-08-28T19:33:31.816Z,17.20
2018-08-28T19:36:30.617Z,17.20
2018-08-28T19:39:28.160Z,17.10
2018-08-28T19:42:25.846Z,17.10
2018-08-28T19:45:23.742Z,17.10
2018-08-28T19:48:21.454Z,17.10
2018-08-28T19:51:19.233Z,17.00
2018-08-28T19:54:17.859Z,17.00
2018-08-28T19:57:15.592Z,17.00
2018-08-28T20:00:13.389Z,16.90
2018-08-28T20:03:11.069Z,16.90
2018-08-28T20:06:08.654Z,16.90
2018-08-28T20:09:06.363Z,16.90
2018-08-28T20:12:04.039Z,16.90
2018-08-28T20:15:01.902Z,16.90
2018-08-28T20:17:59.661Z,16.90
2018-08-28T20:20:57.451Z,17.00
2018-08-28T20:23:55.370Z,17.00
2018-08-28T20:26:53.137Z,17.00
2018-08-28T20:29:51.131Z,17.00
2018-08-28T20:32:48.720Z,17.00
2018-08-28T20:35:46.560Z,17.00
2018-08-28T20:38:44.102Z,17.00
2018-08-28T20:41:41.837Z,17.00
2018-08-28T20:44:39.514Z,16.90
2018-08-28T20:47:37.383Z,16.90
2018-08-28T20:50:35.301Z,16.80
2018-08-28T20:53:33.214Z,16.80
2018-08-28T20:56:31.042Z,16.80
2018-08-28T20:59:28.611Z,16.70
2018-08-28T21:02:26.473Z,16.70
2018-08-28T21:05:29.238Z,16.80
2018-08-28T21:08:27.020Z,16.70
2018-08-28T21:11:24.865Z,16.60
2018-08-28T21:14:22.580Z,16.60
2018-08-28T21:17:20.202Z,16.50
2018-08-28T21:20:18.227Z,16.50
2018-08-28T21:23:15.832Z,16.40
2018-08-28T21:26:13.631Z,16.40
2018-08-28T21:29:11.273Z,16.40
2018-08-28T21:32:08.685Z,16.30
2018-08-28T21:35:06.358Z,16.40
2018-08-28T21:38:05.259Z,16.40
2018-08-28T21:41:02.858Z,16.30
2018-08-28T21:44:00.586Z,16.30
2018-08-28T21:46:58.190Z,16.20
2018-08-28T21:49:57.043Z,16.20
2018-08-28T21:52:54.695Z,16.10
2018-08-28T21:55:52.427Z,16.10
2018-08-28T21:58:50.163Z,16.10
2018-08-28T22:01:47.756Z,16.10
2018-08-28T22:04:45.495Z,16.10
2018-08-28T22:07:46.346Z,16.10
2018-08-28T22:10:44.106Z,16.10
2018-08-28T22:13:41.877Z,16.10
2018-08-28T22:16:39.499Z,16.00
2018-08-28T22:19:37.348Z,16.00
2018-08-28T22:22:35.139Z,16.00
2018-08-28T22:25:33.071Z,16.00
2018-08-28T22:28:30.887Z,16.00
2018-08-28T22:31:28.680Z,15.90
2018-08-28T22:34:26.408Z,15.80
2018-08-28T22:37:24.079Z,15.90
2018-08-28T22:40:22.900Z,15.80
2018-08-28T22:43:24.619Z,15.80
2018-08-28T22:46:22.370Z,15.80
2018-08-28T22:49:20.143Z,15.80
2018-08-28T22:52:17.664Z,15.80
2018-08-28T22:55:15.407Z,15.80
2018-08-28T22:58:13.279Z,15.70
2018-08-28T23:01:10.863Z,15.70
2018-08-28T23:04:08.483Z,15.70
2018-08-28T23:07:06.380Z,15.50
2018-08-28T23:10:04.061Z,15.50
2018-08-28T23:13:01.805Z,15.50
2018-08-28T23:15:59.763Z,15.60
2018-08-28T23:18:57.256Z,15.60
2018-08-28T23:21:54.893Z,15.60
2018-08-28T23:24:52.583Z,15.60
2018-08-28T23:27:50.380Z,15.50
2018-08-28T23:30:48.043Z,15.60
2018-08-28T23:33:45.798Z,15.50
2018-08-28T23:36:43.621Z,15.40
2018-08-28T23:39:41.420Z,15.40
2018-08-28T23:42:39.163Z,15.40
2018-08-28T23:45:37.559Z,15.40
2018-08-28T23:48:35.582Z,15.40
2018-08-28T23:51:33.202Z,15.40
2018-08-28T23:54:31.014Z,15.40
2018-08-28T23:57:28.808Z,15.40
